createdAt,value
2019-04-20T00:01:36.021Z,101349.56
2019-04-20T00:04:41.063Z,101339.50
2019-04-20T00:07:44.083Z,101346.04
2019-04-20T00:10:54.810Z,101342.03
2019-04-20T00:14:01.311Z,101335.28
2019-04-20T00:16:56.986Z,101339.02
2019-04-20T00:20:05.819Z,101332.80
2019-04-20T00:23:30.902Z,101330.80
2019-04-20T00:26:59.609Z,101327.51
2019-04-20T00:29:54.731Z,101328.62
2019-04-20T00:32:55.566Z,101329.00
2019-04-20T00:35:48.367Z,101325.12
2019-04-20T00:38:55.087Z,101323.17
2019-04-20T00:42:03.844Z,101320.57
2019-04-20T00:45:08.460Z,101322.80
2019-04-20T00:48:19.968Z,101318.25
2019-04-20T00:54:18.054Z,101312.76
2019-04-20T00:57:33.949Z,101314.38
2019-04-20T01:00:40.705Z,101319.61
2019-04-20T01:03:46.403Z,101317.06
2019-04-20T01:07:11.428Z,101316.30
2019-04-20T01:10:13.166Z,101317.23
2019-04-20T01:13:20.100Z,101317.84
2019-04-20T01:16:33.571Z,101313.75
2019-04-20T01:19:26.090Z,101314.13
2019-04-20T01:22:35.333Z,101308.80
2019-04-20T01:25:39.178Z,101313.21
2019-04-20T01:28:54.120Z,101316.28
2019-04-20T01:31:56.050Z,101319.27
2019-04-20T01:35:01.569Z,101317.81
2019-04-20T01:38:12.671Z,101321.70
2019-04-20T01:40:59.274Z,101319.16
2019-04-20T01:44:02.643Z,101315.28
2019-04-20T01:47:08.237Z,101319.35
2019-04-20T01:50:18.641Z,101324.25
2019-04-20T01:53:40.554Z,101325.33
2019-04-20T01:56:42.629Z,101326.66
2019-04-20T01:59:45.986Z,101323.17
2019-04-20T02:02:58.200Z,101320.14
2019-04-20T02:06:03.568Z,101316.55
2019-04-20T02:09:14.797Z,101316.97
2019-04-20T02:12:20.325Z,101319.39
2019-04-20T02:15:29.367Z,101330.74
2019-04-20T02:18:36.440Z,101326.20
2019-04-20T02:21:47.716Z,101328.41
2019-04-20T02:24:37.592Z,101329.72
2019-04-20T02:27:47.119Z,101326.84
2019-04-20T02:31:23.082Z,101331.70
2019-04-20T02:34:33.529Z,101330.17
2019-04-20T02:37:51.420Z,101334.77
2019-04-20T02:40:50.786Z,101338.43
2019-04-20T02:44:06.347Z,101342.48
2019-04-20T02:46:55.356Z,101336.35
2019-04-20T02:49:58.267Z,101332.24
2019-04-20T02:53:22.049Z,101332.58
2019-04-20T02:56:15.376Z,101337.92
2019-04-20T02:59:47.339Z,101343.44
2019-04-20T03:02:06.408Z,101336.64
2019-04-20T03:05:06.694Z,101339.69
2019-04-20T03:08:17.409Z,101336.92
2019-04-20T03:11:37.147Z,101338.00
2019-04-20T03:14:26.487Z,101342.33
2019-04-20T03:17:41.319Z,101344.88
2019-04-20T03:20:41.674Z,101338.70
2019-04-20T03:23:55.726Z,101335.41
2019-04-20T03:26:54.688Z,101336.35
2019-04-20T03:36:50.023Z,101334.45
2019-04-20T03:39:42.977Z,101330.80
2019-04-20T03:42:30.907Z,101333.75
2019-04-20T03:45:41.625Z,101331.35
2019-04-20T03:48:54.848Z,101330.00
2019-04-20T03:52:20.232Z,101332.98
2019-04-20T03:55:26.283Z,101335.70
2019-04-20T03:58:45.607Z,101335.76
2019-04-20T04:02:17.089Z,101336.61
2019-04-20T04:05:26.295Z,101335.47
2019-04-20T04:08:21.226Z,101336.04
2019-04-20T04:11:35.286Z,101339.55
2019-04-20T04:14:21.847Z,101338.36
2019-04-20T04:17:31.416Z,101333.55
2019-04-20T04:20:39.731Z,101338.36
2019-04-20T04:23:54.286Z,101346.09
2019-04-20T04:26:54.813Z,101343.77
2019-04-20T04:30:04.385Z,101350.22
2019-04-20T04:33:32.630Z,101344.43
2019-04-20T04:36:10.428Z,101345.77
2019-04-20T04:39:25.217Z,101351.19
2019-04-20T04:42:32.365Z,101356.03
2019-04-20T04:45:15.945Z,101357.48
2019-04-20T04:48:25.276Z,101357.60
2019-04-20T04:51:29.454Z,101364.87
2019-04-20T04:54:37.629Z,101363.54
2019-04-20T04:57:34.572Z,101360.09
2019-04-20T05:00:39.121Z,101361.73
2019-04-20T05:04:11.592Z,101367.34
2019-04-20T05:07:04.568Z,101364.12
2019-04-20T05:09:52.867Z,101372.36
2019-04-20T05:12:56.661Z,101373.91
2019-04-20T05:16:13.247Z,101368.01
2019-04-20T05:19:23.795Z,101371.55
2019-04-20T05:22:35.127Z,101375.05
2019-04-20T05:26:00.912Z,101373.67
2019-04-20T05:28:53.301Z,101376.39
2019-04-20T05:31:54.363Z,101374.19
2019-04-20T05:35:17.985Z,101373.35
2019-04-20T05:38:23.056Z,101372.04
2019-04-20T05:41:21.867Z,101373.03
2019-04-20T05:44:39.729Z,101369.33
2019-04-20T05:47:39.919Z,101377.14
2019-04-20T05:50:42.217Z,101372.35
2019-04-20T05:53:50.109Z,101368.94
2019-04-20T05:57:00.591Z,101373.37
2019-04-20T06:00:09.617Z,101378.56
2019-04-20T06:02:57.817Z,101375.57
2019-04-20T06:06:07.952Z,101377.23
2019-04-20T06:09:16.569Z,101379.56
2019-04-20T06:12:20.114Z,101373.13
2019-04-20T06:15:23.401Z,101378.31
2019-04-20T06:18:42.267Z,101377.41
2019-04-20T06:22:10.269Z,101370.62
2019-04-20T06:25:31.244Z,101375.80
2019-04-20T06:28:19.832Z,101380.80
2019-04-20T06:31:27.337Z,101382.00
2019-04-20T06:37:38.985Z,101389.14
2019-04-20T06:43:54.015Z,101388.75
2019-04-20T06:47:00.119Z,101386.53
2019-04-20T06:49:56.776Z,101390.97
2019-04-20T06:53:32.514Z,101389.39
2019-04-20T06:56:35.418Z,101393.02
2019-04-20T06:59:53.529Z,101388.51
2019-04-20T07:02:45.739Z,101391.16
2019-04-20T07:05:50.547Z,101393.59
2019-04-20T07:09:00.867Z,101391.80
2019-04-20T07:11:59.820Z,101391.18
2019-04-20T07:14:57.284Z,101394.20
2019-04-20T07:18:08.251Z,101393.20
2019-04-20T07:21:23.552Z,101393.33
2019-04-20T07:24:35.052Z,101394.77
2019-04-20T07:27:30.828Z,101399.72
2019-04-20T07:30:35.331Z,101401.61
2019-04-20T07:33:44.614Z,101397.77
2019-04-20T07:36:54.166Z,101402.91
2019-04-20T07:39:53.835Z,101396.39
2019-04-20T07:42:56.448Z,101395.89
2019-04-20T07:46:04.289Z,101404.53
2019-04-20T07:49:07.437Z,101399.36
2019-04-20T07:51:51.113Z,101395.80
2019-04-20T07:58:10.929Z,101396.97
2019-04-20T08:01:43.079Z,101388.46
2019-04-20T08:04:38.577Z,101387.94
2019-04-20T08:07:41.299Z,101385.36
2019-04-20T08:10:46.813Z,101395.57
2019-04-20T08:13:56.941Z,101393.34
2019-04-20T08:17:14.106Z,101392.70
2019-04-20T08:20:02.741Z,101392.03
2019-04-20T08:23:12.387Z,101389.50
2019-04-20T08:26:05.542Z,101391.50
2019-04-20T08:29:21.639Z,101387.91
2019-04-20T08:32:50.559Z,101387.09
2019-04-20T08:36:09.135Z,101386.00
2019-04-20T08:42:14.643Z,101384.11
2019-04-20T08:45:18.069Z,101379.63
2019-04-20T08:48:25.721Z,101382.73
2019-04-20T08:51:25.824Z,101380.59
2019-04-20T08:54:26.650Z,101381.84
2019-04-20T08:57:15.624Z,101382.09
2019-04-20T09:00:28.873Z,101379.83
2019-04-20T09:03:30.152Z,101380.09
2019-04-20T09:06:41.406Z,101378.36
2019-04-20T09:09:58.169Z,101384.55
2019-04-20T09:12:55.812Z,101380.52
2019-04-20T09:15:44.956Z,101375.87
2019-04-20T09:18:56.707Z,101376.98
2019-04-20T09:22:25.578Z,101379.87
2019-04-20T09:28:35.401Z,101374.67
2019-04-20T09:31:47.137Z,101382.45
2019-04-20T09:34:59.664Z,101376.17
2019-04-20T09:38:10.360Z,101384.78
2019-04-20T09:41:21.301Z,101384.61
2019-04-20T09:44:02.527Z,101377.49
2019-04-20T09:47:07.384Z,101381.99
2019-04-20T09:50:29.313Z,101377.91
2019-04-20T09:53:29.930Z,101375.91
2019-04-20T09:56:36.981Z,101372.89
2019-04-20T09:59:44.745Z,101369.60
2019-04-20T10:02:34.467Z,101371.91
2019-04-20T10:05:35.741Z,101368.34
2019-04-20T10:08:43.520Z,101370.78
2019-04-20T10:11:45.865Z,101360.61
2019-04-20T10:14:49.163Z,101360.69
2019-04-20T10:17:52.184Z,101358.05
2019-04-20T10:20:55.821Z,101357.70
2019-04-20T10:23:59.193Z,101357.15
2019-04-20T10:27:03.008Z,101349.45
2019-04-20T10:30:06.700Z,101351.27
2019-04-20T10:33:10.110Z,101348.41
2019-04-20T10:36:45.851Z,101344.93
2019-04-20T10:39:49.296Z,101345.04
2019-04-20T10:42:53.150Z,101350.84
2019-04-20T10:45:59.196Z,101347.81
2019-04-20T10:49:04.726Z,101341.19
2019-04-20T10:52:08.101Z,101339.88
2019-04-20T10:55:12.386Z,101343.48
2019-04-20T10:58:15.633Z,101340.28
2019-04-20T11:01:19.952Z,101343.91
2019-04-20T11:04:23.356Z,101344.27
2019-04-20T11:07:28.348Z,101344.20
2019-04-20T11:10:46.849Z,101335.50
2019-04-20T11:13:37.481Z,101331.27
2019-04-20T11:16:42.458Z,101334.95
2019-04-20T11:19:45.751Z,101330.39
2019-04-20T11:22:50.543Z,101325.75
2019-04-20T11:25:53.971Z,101320.65
2019-04-20T11:28:57.970Z,101319.19
2019-04-20T11:32:01.387Z,101310.24
2019-04-20T11:35:10.606Z,101311.16
2019-04-20T11:38:13.653Z,101307.16
2019-04-20T11:41:22.970Z,101303.38
2019-04-20T11:44:20.197Z,101298.26
2019-04-20T11:47:23.134Z,101295.20
2019-04-20T11:50:27.402Z,101295.33
2019-04-20T11:53:30.543Z,101286.12
2019-04-20T11:56:38.883Z,101287.79
2019-04-20T11:59:39.097Z,101281.92
2019-04-20T12:03:11.116Z,101279.62
2019-04-20T12:06:08.564Z,101279.19
2019-04-20T12:09:12.890Z,101273.52
2019-04-20T12:12:27.503Z,101266.21
2019-04-20T12:15:22.446Z,101264.74
2019-04-20T12:18:25.836Z,101262.53
2019-04-20T12:21:29.036Z,101260.75
2019-04-20T12:24:33.184Z,101255.85
2019-04-20T12:27:41.094Z,101256.61
2019-04-20T12:30:43.792Z,101254.77
2019-04-20T12:33:46.789Z,101246.50
2019-04-20T12:36:51.156Z,101248.16
2019-04-20T12:39:55.346Z,101252.14
2019-04-20T12:42:59.221Z,101245.52
2019-04-20T12:46:02.335Z,101246.80
2019-04-20T12:49:05.551Z,101235.89
2019-04-20T12:52:08.672Z,101235.62
2019-04-20T12:55:14.601Z,101238.98
2019-04-20T12:58:18.640Z,101239.48
2019-04-20T13:01:22.830Z,101233.98
2019-04-20T13:04:26.850Z,101232.13
2019-04-20T13:07:38.245Z,101225.88
2019-04-20T13:10:36.262Z,101220.45
2019-04-20T13:14:02.244Z,101215.52
2019-04-20T13:17:06.217Z,101220.54
2019-04-20T13:20:10.109Z,101217.00
2019-04-20T13:23:15.023Z,101212.82
2019-04-20T13:26:19.366Z,101213.21
2019-04-20T13:29:38.274Z,101211.52
2019-04-20T13:32:43.606Z,101203.36
2019-04-20T13:35:48.115Z,101203.37
2019-04-20T13:38:52.229Z,101200.89
2019-04-20T13:42:03.254Z,101194.69
2019-04-20T13:45:01.143Z,101189.42
2019-04-20T13:48:04.461Z,101192.05
2019-04-20T13:51:09.855Z,101188.14
2019-04-20T13:54:17.659Z,101179.05
2019-04-20T13:57:23.902Z,101180.00
2019-04-20T14:01:03.012Z,101175.73
2019-04-20T14:04:28.876Z,101169.55
2019-04-20T14:07:33.555Z,101172.73
2019-04-20T14:10:37.664Z,101170.34
2019-04-20T14:13:48.278Z,101161.45
2019-04-20T14:16:47.290Z,101164.06
2019-04-20T14:19:50.548Z,101161.52
2019-04-20T14:22:54.730Z,101159.50
2019-04-20T14:25:58.757Z,101153.78
2019-04-20T14:29:02.976Z,101148.27
2019-04-20T14:32:07.707Z,101141.66
2019-04-20T14:35:11.322Z,101142.76
2019-04-20T14:38:15.400Z,101146.52
2019-04-20T14:41:18.380Z,101141.59
2019-04-20T14:44:21.626Z,101146.09
2019-04-20T14:47:25.644Z,101135.03
2019-04-20T14:50:29.822Z,101129.50
2019-04-20T14:53:33.634Z,101130.31
2019-04-20T14:56:37.789Z,101129.92
2019-04-20T14:59:49.482Z,101130.80
2019-04-20T15:02:54.148Z,101133.11
2019-04-20T15:06:02.023Z,101127.88
2019-04-20T15:09:08.732Z,101122.66
2019-04-20T15:12:13.065Z,101119.49
2019-04-20T15:15:16.739Z,101118.41
2019-04-20T15:18:21.759Z,101116.20
2019-04-20T15:21:25.720Z,101112.53
2019-04-20T15:24:29.405Z,101115.56
2019-04-20T15:27:33.172Z,101110.73
2019-04-20T15:30:38.338Z,101111.19
2019-04-20T15:33:41.487Z,101106.97
2019-04-20T15:36:44.534Z,101107.23
2019-04-20T15:39:47.482Z,101107.92
2019-04-20T15:42:59.066Z,101106.07
2019-04-20T15:45:55.273Z,101105.77
2019-04-20T15:48:59.773Z,101102.50
2019-04-20T15:52:03.929Z,101095.21
2019-04-20T15:55:16.903Z,101091.84
2019-04-20T15:58:12.415Z,101088.59
2019-04-20T16:01:16.803Z,101098.25
2019-04-20T16:04:44.594Z,101093.69
2019-04-20T16:07:53.139Z,101090.63
2019-04-20T16:10:53.080Z,101087.33
2019-04-20T16:13:58.156Z,101082.00
2019-04-20T16:17:04.042Z,101090.31
2019-04-20T16:20:12.570Z,101085.87
2019-04-20T16:23:12.417Z,101082.21
2019-04-20T16:26:41.984Z,101088.29
2019-04-20T16:29:45.133Z,101082.40
2019-04-20T16:32:48.258Z,101084.51
2019-04-20T16:35:52.333Z,101083.40
2019-04-20T16:38:55.488Z,101080.48
2019-04-20T16:41:58.599Z,101081.66
2019-04-20T16:45:03.171Z,101072.59
2019-04-20T16:48:07.203Z,101070.64
2019-04-20T16:51:13.120Z,101072.99
2019-04-20T16:54:17.483Z,101067.55
2019-04-20T16:57:21.483Z,101069.16
2019-04-20T17:00:25.422Z,101061.84
2019-04-20T17:03:42.060Z,101060.57
2019-04-20T17:06:34.217Z,101055.71
2019-04-20T17:09:37.981Z,101054.70
2019-04-20T17:12:41.887Z,101056.93
2019-04-20T17:15:45.743Z,101054.62
2019-04-20T17:18:50.089Z,101060.07
2019-04-20T17:21:57.183Z,101054.45
2019-04-20T17:24:59.799Z,101054.19
2019-04-20T17:28:22.630Z,101060.73
2019-04-20T17:31:40.617Z,101059.59
2019-04-20T17:34:57.848Z,101055.89
2019-04-20T17:37:50.290Z,101066.57
2019-04-20T17:41:11.794Z,101058.03
2019-04-20T17:44:14.212Z,101063.50
2019-04-20T17:47:29.137Z,101060.52
2019-04-20T17:50:32.860Z,101066.02
2019-04-20T17:53:44.932Z,101064.89
2019-04-20T17:56:42.394Z,101066.09
2019-04-20T17:59:54.166Z,101076.51
2019-04-20T18:03:13.881Z,101069.30
2019-04-20T18:06:19.901Z,101074.28
2019-04-20T18:09:34.421Z,101082.76
2019-04-20T18:12:24.111Z,101072.24
2019-04-20T18:15:35.903Z,101069.86
2019-04-20T18:18:52.962Z,101080.00
2019-04-20T18:22:07.880Z,101083.16
2019-04-20T18:25:29.351Z,101082.29
2019-04-20T18:28:34.618Z,101084.27
2019-04-20T18:31:47.270Z,101079.38
2019-04-20T18:35:04.412Z,101083.23
2019-04-20T18:38:09.729Z,101083.67
2019-04-20T18:41:25.682Z,101084.94
2019-04-20T18:44:14.916Z,101089.38
2019-04-20T18:47:42.158Z,101082.42
2019-04-20T18:50:31.964Z,101083.10
2019-04-20T18:53:34.271Z,101084.13
2019-04-20T18:56:38.595Z,101087.03
2019-04-20T18:59:43.806Z,101090.34
2019-04-20T19:02:46.871Z,101093.06
2019-04-20T19:05:47.609Z,101091.81
2019-04-20T19:08:52.520Z,101088.05
2019-04-20T19:12:00.849Z,101088.83
2019-04-20T19:15:37.453Z,101093.86
2019-04-20T19:18:57.399Z,101103.27
2019-04-20T19:21:45.853Z,101101.98
2019-04-20T19:24:49.752Z,101101.21
2019-04-20T19:27:55.961Z,101102.05
2019-04-20T19:31:11.403Z,101103.06
2019-04-20T19:34:18.866Z,101106.25
2019-04-20T19:37:16.780Z,101104.16
2019-04-20T19:40:28.215Z,101106.27
2019-04-20T19:43:26.693Z,101107.36
2019-04-20T19:46:50.653Z,101104.16
2019-04-20T19:49:37.152Z,101112.19
2019-04-20T19:52:56.070Z,101112.61
2019-04-20T19:55:54.843Z,101112.97
2019-04-20T19:58:59.006Z,101113.54
2019-04-20T20:01:49.647Z,101112.53
2019-04-20T20:05:00.451Z,101114.09
2019-04-20T20:08:06.431Z,101113.60
2019-04-20T20:11:04.611Z,101111.03
2019-04-20T20:14:11.079Z,101113.48
2019-04-20T20:17:35.612Z,101108.82
2019-04-20T20:20:35.905Z,101115.52
2019-04-20T20:23:23.910Z,101112.77
2019-04-20T20:26:33.624Z,101116.01
2019-04-20T20:29:38.372Z,101117.27
2019-04-20T20:32:56.817Z,101109.79
2019-04-20T20:35:51.426Z,101120.98
2019-04-20T20:38:50.677Z,101119.72
2019-04-20T20:42:01.587Z,101124.31
2019-04-20T20:45:09.195Z,101117.88
2019-04-20T20:48:22.712Z,101119.43
2019-04-20T20:51:35.785Z,101112.92
2019-04-20T20:54:28.627Z,101115.79
2019-04-20T20:57:22.405Z,101113.50
2019-04-20T21:00:34.389Z,101113.66
2019-04-20T21:03:35.993Z,101118.61
2019-04-20T21:06:34.826Z,101113.38
2019-04-20T21:09:37.895Z,101109.42
2019-04-20T21:12:46.427Z,101114.25
2019-04-20T21:15:54.134Z,101119.63
2019-04-20T21:19:07.814Z,101110.89
2019-04-20T21:22:04.851Z,101110.27
2019-04-20T21:25:03.332Z,101111.87
2019-04-20T21:28:08.916Z,101111.20
2019-04-20T21:31:16.815Z,101111.94
2019-04-20T21:34:19.909Z,101105.48
2019-04-20T21:37:24.993Z,101105.21
2019-04-20T21:40:35.310Z,101099.52
2019-04-20T21:43:37.268Z,101101.28
2019-04-20T21:46:44.194Z,101104.37
2019-04-20T21:49:54.068Z,101098.69
2019-04-20T21:52:52.026Z,101103.58
2019-04-20T21:55:55.080Z,101100.07
2019-04-20T21:59:02.486Z,101099.75
2019-04-20T22:02:12.897Z,101101.52
2019-04-20T22:05:11.547Z,101096.21
2019-04-20T22:08:16.433Z,101094.68
2019-04-20T22:11:20.033Z,101096.45
2019-04-20T22:14:26.202Z,101097.07
2019-04-20T22:17:33.171Z,101091.28
2019-04-20T22:20:48.240Z,101098.34
2019-04-20T22:23:54.613Z,101091.67
2019-04-20T22:26:58.592Z,101085.78
2019-04-20T22:29:50.145Z,101084.06
2019-04-20T22:32:56.582Z,101092.02
2019-04-20T22:36:03.927Z,101087.45
2019-04-20T22:39:15.613Z,101081.02
2019-04-20T22:42:20.476Z,101088.48
2019-04-20T22:45:25.331Z,101084.35
2019-04-20T22:48:29.219Z,101082.94
2019-04-20T22:51:47.344Z,101074.72
2019-04-20T22:54:55.248Z,101075.77
2019-04-20T22:57:53.854Z,101072.39
2019-04-20T23:00:54.324Z,101073.78
2019-04-20T23:03:52.705Z,101066.42
2019-04-20T23:06:57.283Z,101063.77
2019-04-20T23:10:03.084Z,101062.27
2019-04-20T23:13:05.763Z,101057.58
2019-04-20T23:16:28.805Z,101056.92
2019-04-20T23:19:39.260Z,101046.63
2019-04-20T23:22:40.037Z,101043.52
2019-04-20T23:25:38.987Z,101046.55
2019-04-20T23:28:48.547Z,101038.19
2019-04-20T23:31:55.325Z,101036.02
2019-04-20T23:35:01.993Z,101031.97
2019-04-20T23:38:04.480Z,101032.75
2019-04-20T23:41:03.878Z,101024.24
2019-04-20T23:44:19.345Z,101021.69
2019-04-20T23:47:30.066Z,101012.06
2019-04-20T23:50:48.952Z,101007.34
2019-04-20T23:53:52.177Z,101006.36
2019-04-20T23:56:43.872Z,100993.97
2019-04-20T23:59:48.649Z,100994.57
